createdAt,value
2023-07-19T00:02:24.840Z,19.27
2023-07-19T00:04:51.640Z,19.42
2023-07-19T00:07:18.527Z,19.46
2023-07-19T00:09:45.284Z,19.27
2023-07-19T00:12:12.719Z,19.21
2023-07-19T00:14:39.490Z,19.45
2023-07-19T00:17:06.389Z,19.24
2023-07-19T00:19:33.131Z,19.40
2023-07-19T00:21:59.888Z,19.44
2023-07-19T00:24:26.790Z,19.36
2023-07-19T00:26:53.557Z,19.18
2023-07-19T00:29:20.288Z,19.13
2023-07-19T00:31:47.088Z,19.10
2023-07-19T00:34:13.885Z,19.34
2023-07-19T00:36:40.825Z,19.36
2023-07-19T00:39:07.551Z,19.37
2023-07-19T00:41:34.440Z,19.44
2023-07-19T00:44:01.235Z,19.17
2023-07-19T00:46:29.057Z,19.39
2023-07-19T00:48:56.977Z,19.26
2023-07-19T00:51:24.465Z,19.28
2023-07-19T00:53:51.587Z,19.20
2023-07-19T00:56:18.857Z,19.10
2023-07-19T00:58:45.812Z,19.13
2023-07-19T01:01:13.360Z,19.30
2023-07-19T01:03:40.127Z,19.20
2023-07-19T01:06:07.057Z,19.16
2023-07-19T01:08:34.427Z,19.14
2023-07-19T01:11:01.462Z,18.98
2023-07-19T01:13:28.674Z,19.06
2023-07-19T01:15:55.570Z,18.93
2023-07-19T01:18:22.361Z,18.92
2023-07-19T01:20:49.369Z,18.90
2023-07-19T01:23:16.166Z,18.82
2023-07-19T01:25:44.247Z,18.89
2023-07-19T01:28:11.061Z,18.76
2023-07-19T01:30:37.850Z,18.83
2023-07-19T01:33:05.237Z,18.44
2023-07-19T01:35:33.652Z,18.63
2023-07-19T01:38:00.615Z,18.57
2023-07-19T01:40:27.427Z,18.49
2023-07-19T01:42:54.292Z,18.51
2023-07-19T01:45:21.117Z,18.45
2023-07-19T01:47:47.956Z,18.42
2023-07-19T01:50:14.768Z,18.51
2023-07-19T01:52:42.018Z,18.53
2023-07-19T01:55:09.020Z,18.61
2023-07-19T01:57:35.844Z,18.41
2023-07-19T02:00:03.525Z,18.44
2023-07-19T02:02:30.409Z,18.42
2023-07-19T02:04:57.382Z,18.39
2023-07-19T02:07:24.243Z,18.49
2023-07-19T02:09:51.462Z,18.55
2023-07-19T02:12:18.571Z,18.47
2023-07-19T02:14:45.516Z,18.47
2023-07-19T02:17:12.274Z,18.42
2023-07-19T02:19:39.132Z,18.29
2023-07-19T02:22:06.209Z,18.48
2023-07-19T02:24:32.987Z,18.44
2023-07-19T02:27:00.248Z,18.42
2023-07-19T02:29:27.196Z,18.40
2023-07-19T02:31:54.466Z,18.36
2023-07-19T02:34:24.155Z,18.48
2023-07-19T02:36:51.069Z,18.52
2023-07-19T02:39:18.556Z,18.54
2023-07-19T02:41:45.390Z,18.53
2023-07-19T02:44:12.181Z,18.64
2023-07-19T02:46:39.108Z,18.53
2023-07-19T02:49:06.065Z,18.59
2023-07-19T02:51:32.897Z,18.62
2023-07-19T02:54:02.156Z,18.60
2023-07-19T02:56:28.995Z,18.65
2023-07-19T02:58:55.831Z,18.83
2023-07-19T03:01:22.953Z,18.91
2023-07-19T03:03:50.655Z,19.03
2023-07-19T03:06:19.407Z,19.05
2023-07-19T03:08:46.262Z,19.03
2023-07-19T03:11:14.875Z,19.02
2023-07-19T03:13:41.816Z,18.81
2023-07-19T03:16:18.357Z,18.79
2023-07-19T03:19:04.992Z,18.78
2023-07-19T03:21:34.907Z,18.76
2023-07-19T03:24:10.440Z,18.68
2023-07-19T03:26:37.298Z,18.75
2023-07-19T03:29:04.162Z,18.93
2023-07-19T03:31:31.003Z,18.74
2023-07-19T03:33:58.237Z,18.86
2023-07-19T03:36:29.057Z,18.79
2023-07-19T03:39:07.352Z,18.94
2023-07-19T03:41:47.669Z,18.88
2023-07-19T03:47:38.314Z,19.00
2023-07-19T03:50:08.711Z,19.05
2023-07-19T03:52:38.611Z,18.95
2023-07-19T03:55:18.402Z,19.28
2023-07-19T03:57:49.722Z,18.97
2023-07-19T04:00:20.340Z,19.00
2023-07-19T04:02:55.803Z,18.92
2023-07-19T04:05:37.738Z,18.95
2023-07-19T04:14:27.530Z,19.12
2023-07-19T04:17:43.393Z,19.19
2023-07-19T04:20:49.025Z,19.31
2023-07-19T04:23:33.373Z,19.42
2023-07-19T04:26:16.812Z,19.31
2023-07-19T04:28:43.645Z,19.65
2023-07-19T04:31:10.410Z,19.57
2023-07-19T04:33:37.272Z,19.69
2023-07-19T04:36:17.114Z,19.74
2023-07-19T04:38:44.429Z,19.77
2023-07-19T04:41:11.312Z,19.83
2023-07-19T04:43:38.149Z,19.91
2023-07-19T04:46:05.046Z,20.00
2023-07-19T04:48:31.953Z,20.19
2023-07-19T04:50:59.908Z,20.35
2023-07-19T04:53:27.297Z,20.36
2023-07-19T04:55:55.309Z,20.57
2023-07-19T04:58:22.113Z,20.58
2023-07-19T05:00:48.838Z,20.67
2023-07-19T05:03:15.617Z,20.65
2023-07-19T05:05:42.431Z,20.71
2023-07-19T05:08:09.463Z,20.95
2023-07-19T05:10:37.903Z,21.10
2023-07-19T05:13:05.779Z,21.21
2023-07-19T05:15:33.597Z,21.31
2023-07-19T05:18:02.232Z,21.35
2023-07-19T05:20:32.838Z,21.32
2023-07-19T05:23:00.245Z,21.49
2023-07-19T05:25:27.062Z,21.42
2023-07-19T05:27:53.850Z,21.63
2023-07-19T05:30:20.626Z,21.79
2023-07-19T05:32:47.366Z,21.99
2023-07-19T05:35:14.217Z,22.14
2023-07-19T05:37:41.396Z,22.27
2023-07-19T05:40:09.371Z,22.40
2023-07-19T05:42:36.304Z,22.57
2023-07-19T05:45:03.546Z,22.73
2023-07-19T05:47:31.303Z,22.72
2023-07-19T05:49:59.213Z,22.92
2023-07-19T05:52:28.569Z,23.05
2023-07-19T05:54:55.587Z,23.03
2023-07-19T05:57:22.453Z,22.98
2023-07-19T05:59:49.339Z,22.95
2023-07-19T06:02:16.214Z,23.02
2023-07-19T06:04:44.130Z,23.10
2023-07-19T06:07:11.062Z,23.20
2023-07-19T06:09:37.874Z,23.11
2023-07-19T06:12:05.211Z,23.18
2023-07-19T06:14:32.002Z,23.47
2023-07-19T06:16:58.747Z,23.74
2023-07-19T06:19:25.532Z,23.90
2023-07-19T06:21:52.564Z,23.97
2023-07-19T06:24:19.408Z,23.94
2023-07-19T06:26:46.176Z,24.19
2023-07-19T06:29:12.916Z,24.37
2023-07-19T06:31:39.766Z,24.76
2023-07-19T06:34:07.542Z,25.21
2023-07-19T06:36:34.715Z,25.72
2023-07-19T06:39:01.641Z,25.99
2023-07-19T06:41:28.769Z,26.43
2023-07-19T06:43:55.786Z,26.66
2023-07-19T06:46:22.661Z,27.07
2023-07-19T06:48:49.546Z,26.92
2023-07-19T06:51:16.456Z,27.21
2023-07-19T06:53:45.261Z,27.36
2023-07-19T06:56:12.140Z,27.36
2023-07-19T06:58:38.936Z,27.89
2023-07-19T07:01:05.688Z,28.14
2023-07-19T07:03:33.403Z,28.02
2023-07-19T07:06:03.940Z,27.82
2023-07-19T07:08:31.337Z,27.47
2023-07-19T07:11:01.094Z,27.40
2023-07-19T07:13:27.896Z,27.14
2023-07-19T07:15:54.857Z,26.86
2023-07-19T07:18:21.644Z,27.17
2023-07-19T07:20:48.433Z,27.31
2023-07-19T07:23:15.264Z,27.55
2023-07-19T07:25:42.092Z,27.13
2023-07-19T07:28:09.587Z,27.38
2023-07-19T07:30:37.590Z,27.33
2023-07-19T07:33:08.212Z,27.17
2023-07-19T07:35:35.076Z,27.38
2023-07-19T07:38:01.837Z,27.44
2023-07-19T07:40:28.911Z,27.73
2023-07-19T07:42:55.757Z,27.89
2023-07-19T07:45:22.590Z,28.06
2023-07-19T07:47:49.435Z,28.30
2023-07-19T07:50:19.433Z,28.87
2023-07-19T07:52:55.240Z,28.62
2023-07-19T07:55:29.774Z,28.54
2023-07-19T07:57:56.496Z,28.33
2023-07-19T08:00:23.302Z,28.64
2023-07-19T08:02:50.236Z,28.82
2023-07-19T08:05:17.221Z,28.99
2023-07-19T08:07:43.965Z,28.84
2023-07-19T08:10:10.808Z,28.76
2023-07-19T08:12:37.611Z,28.93
2023-07-19T08:15:05.174Z,28.69
2023-07-19T08:17:31.959Z,28.86
2023-07-19T08:19:58.727Z,29.04
2023-07-19T08:22:29.215Z,29.08
2023-07-19T08:24:56.166Z,29.12
2023-07-19T08:27:23.082Z,29.63
2023-07-19T08:29:49.888Z,30.07
2023-07-19T08:32:16.639Z,29.30
2023-07-19T08:34:43.758Z,29.05
2023-07-19T08:37:27.461Z,29.70
2023-07-19T08:39:54.224Z,29.94
2023-07-19T08:42:21.185Z,30.52
2023-07-19T08:44:49.876Z,30.85
2023-07-19T08:47:18.245Z,31.04
2023-07-19T08:49:45.216Z,30.45
2023-07-19T08:52:14.065Z,30.08
2023-07-19T08:54:40.888Z,29.32
2023-07-19T08:57:07.675Z,28.96
2023-07-19T08:59:35.780Z,28.76
2023-07-19T09:02:03.771Z,28.52
2023-07-19T09:04:33.614Z,28.35
2023-07-19T09:07:04.400Z,28.37
2023-07-19T09:09:31.685Z,28.13
2023-07-19T09:11:58.551Z,27.76
2023-07-19T09:14:37.045Z,27.59
2023-07-19T09:17:04.188Z,27.64
2023-07-19T09:19:31.025Z,27.43
2023-07-19T09:21:58.716Z,27.06
2023-07-19T09:24:25.933Z,26.97
2023-07-19T09:26:54.171Z,27.39
2023-07-19T09:29:22.096Z,27.69
2023-07-19T09:31:57.407Z,28.54
2023-07-19T09:34:27.172Z,29.60
2023-07-19T09:36:54.511Z,29.89
2023-07-19T09:39:22.434Z,29.77
2023-07-19T09:41:49.369Z,30.12
2023-07-19T09:44:17.978Z,30.41
2023-07-19T09:46:46.108Z,30.62
2023-07-19T09:49:14.917Z,30.86
2023-07-19T09:51:43.090Z,31.31
2023-07-19T09:54:14.488Z,31.79
2023-07-19T09:56:43.926Z,31.95
2023-07-19T09:59:18.874Z,32.19
2023-07-19T10:01:46.155Z,32.43
2023-07-19T10:04:27.410Z,32.44
2023-07-19T10:07:11.384Z,32.23
2023-07-19T10:09:43.989Z,32.35
2023-07-19T10:12:27.271Z,31.99
2023-07-19T10:14:54.321Z,32.06
2023-07-19T10:17:22.072Z,32.56
2023-07-19T10:20:09.079Z,33.41
2023-07-19T10:22:55.018Z,33.01
2023-07-19T10:25:35.834Z,33.53
2023-07-19T10:28:11.280Z,32.85
2023-07-19T10:31:27.647Z,33.30
2023-07-19T10:33:56.987Z,33.57
2023-07-19T10:36:24.499Z,33.45
2023-07-19T10:38:51.690Z,34.11
2023-07-19T10:41:20.753Z,34.51
2023-07-19T10:43:51.620Z,33.84
2023-07-19T10:46:33.126Z,34.15
2023-07-19T10:49:00.178Z,33.64
2023-07-19T10:51:27.044Z,33.62
2023-07-19T10:54:00.670Z,33.64
2023-07-19T10:56:29.325Z,34.28
2023-07-19T10:59:00.691Z,34.45
2023-07-19T11:01:31.788Z,34.85
2023-07-19T11:04:06.396Z,35.04
2023-07-19T11:06:34.852Z,34.73
2023-07-19T11:09:09.233Z,34.88
2023-07-19T11:11:38.721Z,33.76
2023-07-19T11:14:06.535Z,33.83
2023-07-19T11:16:33.478Z,33.62
2023-07-19T11:19:00.392Z,33.98
2023-07-19T11:21:28.942Z,34.09
2023-07-19T11:23:56.318Z,33.65
2023-07-19T11:26:23.170Z,33.55
2023-07-19T11:28:54.249Z,33.00
2023-07-19T11:31:39.690Z,33.45
2023-07-19T11:34:12.401Z,32.81
2023-07-19T11:36:44.478Z,32.87
2023-07-19T11:39:18.709Z,32.88
2023-07-19T11:41:47.040Z,33.10
2023-07-19T11:44:24.009Z,32.95
2023-07-19T11:46:51.200Z,32.62
2023-07-19T11:49:19.585Z,33.20
2023-07-19T11:51:47.462Z,33.29
2023-07-19T11:54:16.569Z,33.84
2023-07-19T11:56:43.537Z,33.30
2023-07-19T11:59:11.088Z,33.02
2023-07-19T12:01:38.003Z,32.97
2023-07-19T12:04:05.171Z,33.58
2023-07-19T12:06:32.705Z,34.08
2023-07-19T12:09:00.019Z,33.87
2023-07-19T12:11:27.289Z,34.11
2023-07-19T12:13:54.118Z,33.52
2023-07-19T12:16:21.550Z,33.51
2023-07-19T12:18:48.607Z,33.93
2023-07-19T12:21:15.456Z,33.44
2023-07-19T12:23:57.604Z,33.48
2023-07-19T12:28:56.230Z,33.54
2023-07-19T12:31:23.314Z,33.94
2023-07-19T12:33:50.955Z,34.12
2023-07-19T12:36:18.630Z,34.28
2023-07-19T12:38:46.642Z,34.39
2023-07-19T12:41:13.507Z,34.21
2023-07-19T12:43:40.300Z,34.40
2023-07-19T12:46:07.230Z,34.46
2023-07-19T12:48:34.122Z,34.67
2023-07-19T12:51:00.956Z,35.02
2023-07-19T12:53:29.281Z,34.88
2023-07-19T12:55:56.094Z,35.60
2023-07-19T12:58:23.727Z,35.61
2023-07-19T13:00:50.632Z,35.34
2023-07-19T13:03:17.649Z,34.35
2023-07-19T13:05:45.389Z,33.94
2023-07-19T13:08:12.157Z,33.56
2023-07-19T13:10:38.959Z,33.61
2023-07-19T13:13:05.746Z,33.08
2023-07-19T13:15:32.753Z,33.17
2023-07-19T13:18:00.274Z,33.60
2023-07-19T13:20:27.158Z,33.37
2023-07-19T13:22:54.063Z,33.37
2023-07-19T13:25:21.070Z,33.90
2023-07-19T13:27:47.800Z,34.46
2023-07-19T13:30:14.661Z,34.52
2023-07-19T13:32:41.723Z,34.66
2023-07-19T13:40:10.206Z,34.65
2023-07-19T13:42:39.292Z,34.87
2023-07-19T13:45:06.799Z,35.27
2023-07-19T13:47:33.707Z,34.96
2023-07-19T13:50:00.524Z,33.92
2023-07-19T13:52:28.161Z,34.22
2023-07-19T13:54:54.910Z,34.16
2023-07-19T13:57:21.763Z,34.37
2023-07-19T13:59:48.492Z,33.92
2023-07-19T14:02:15.946Z,34.37
2023-07-19T14:04:43.097Z,34.48
2023-07-19T14:07:10.038Z,34.50
2023-07-19T14:09:38.074Z,34.75
2023-07-19T14:12:05.188Z,34.95
2023-07-19T14:14:45.185Z,35.07
2023-07-19T14:17:12.707Z,35.36
2023-07-19T14:19:39.984Z,35.60
2023-07-19T14:22:07.211Z,35.74
2023-07-19T14:24:34.004Z,35.74
2023-07-19T14:27:01.015Z,35.78
2023-07-19T14:29:29.404Z,35.52
2023-07-19T14:31:56.601Z,35.11
2023-07-19T14:34:26.737Z,35.25
2023-07-19T14:36:53.999Z,35.41
2023-07-19T14:39:21.525Z,34.67
2023-07-19T14:41:54.845Z,34.60
2023-07-19T14:44:24.196Z,34.65
2023-07-19T14:46:51.013Z,34.95
2023-07-19T14:49:18.477Z,34.66
2023-07-19T14:51:46.355Z,33.99
2023-07-19T14:54:13.558Z,34.74
2023-07-19T14:56:40.504Z,34.82
2023-07-19T14:59:08.385Z,34.26
2023-07-19T15:01:35.902Z,34.03
2023-07-19T15:04:03.200Z,34.44
2023-07-19T15:08:58.627Z,33.29
2023-07-19T15:11:25.656Z,33.89
2023-07-19T15:13:52.648Z,34.22
2023-07-19T15:16:19.765Z,33.37
2023-07-19T15:18:47.440Z,32.71
2023-07-19T15:21:14.797Z,32.25
2023-07-19T15:23:49.838Z,30.60
2023-07-19T15:26:28.563Z,29.89
2023-07-19T15:29:00.735Z,29.61
2023-07-19T15:31:27.934Z,29.23
2023-07-19T15:33:57.274Z,29.32
2023-07-19T15:36:24.485Z,29.72
2023-07-19T15:38:55.869Z,30.29
2023-07-19T15:41:23.974Z,30.52
2023-07-19T15:43:51.238Z,31.03
2023-07-19T15:46:18.097Z,31.23
2023-07-19T15:48:45.039Z,31.81
2023-07-19T15:51:14.696Z,32.14
2023-07-19T15:53:41.782Z,32.51
2023-07-19T15:56:09.675Z,32.60
2023-07-19T15:58:36.938Z,32.17
2023-07-19T16:01:08.569Z,32.00
2023-07-19T16:03:36.380Z,32.37
2023-07-19T16:06:04.510Z,32.57
2023-07-19T16:08:31.595Z,32.57
2023-07-19T16:10:58.822Z,32.57
2023-07-19T16:13:25.661Z,32.20
2023-07-19T16:15:52.417Z,32.55
2023-07-19T16:18:19.499Z,32.61
2023-07-19T16:20:47.059Z,32.56
2023-07-19T16:23:15.092Z,32.59
2023-07-19T16:25:41.969Z,32.50
2023-07-19T16:28:08.760Z,32.55
2023-07-19T16:30:35.594Z,32.59
2023-07-19T16:33:02.611Z,32.63
2023-07-19T16:35:29.859Z,32.95
2023-07-19T16:37:56.717Z,32.54
2023-07-19T16:40:23.831Z,32.59
2023-07-19T16:42:50.786Z,32.06
2023-07-19T16:45:17.537Z,32.04
2023-07-19T16:47:44.384Z,31.51
2023-07-19T16:50:12.570Z,31.68
2023-07-19T16:52:41.629Z,31.65
2023-07-19T16:55:10.801Z,31.58
2023-07-19T16:57:38.829Z,31.55
2023-07-19T17:00:17.412Z,31.64
2023-07-19T17:02:44.871Z,30.98
2023-07-19T17:05:12.519Z,30.92
2023-07-19T17:07:39.725Z,30.80
2023-07-19T17:10:07.038Z,30.70
2023-07-19T17:12:33.893Z,30.92
2023-07-19T17:15:00.726Z,30.85
2023-07-19T17:17:28.935Z,30.66
2023-07-19T17:19:55.929Z,30.54
2023-07-19T17:22:23.401Z,30.38
2023-07-19T17:24:50.339Z,29.94
2023-07-19T17:27:17.328Z,30.35
2023-07-19T17:29:44.422Z,30.52
2023-07-19T17:32:11.453Z,30.13
2023-07-19T17:34:38.726Z,30.18
2023-07-19T17:37:07.047Z,30.07
2023-07-19T17:39:34.126Z,30.04
2023-07-19T17:42:01.168Z,29.69
2023-07-19T17:44:28.454Z,29.33
2023-07-19T17:46:55.748Z,29.45
2023-07-19T17:49:23.978Z,29.29
2023-07-19T17:51:51.436Z,29.30
2023-07-19T17:54:18.685Z,29.25
2023-07-19T17:56:46.128Z,29.06
2023-07-19T17:59:12.980Z,28.58
2023-07-19T18:01:39.974Z,28.55
2023-07-19T18:04:07.255Z,28.28
2023-07-19T18:06:34.415Z,28.21
2023-07-19T18:09:01.996Z,28.19
2023-07-19T18:11:29.388Z,27.89
2023-07-19T18:13:56.733Z,27.58
2023-07-19T18:16:24.223Z,27.56
2023-07-19T18:18:51.232Z,27.34
2023-07-19T18:21:18.633Z,27.21
2023-07-19T18:23:45.957Z,27.12
2023-07-19T18:26:12.819Z,26.92
2023-07-19T18:28:39.779Z,26.80
2023-07-19T18:31:06.900Z,26.44
2023-07-19T18:33:33.896Z,26.43
2023-07-19T18:36:00.851Z,26.28
2023-07-19T18:38:27.799Z,25.93
2023-07-19T18:40:55.542Z,25.98
2023-07-19T18:43:22.652Z,25.82
2023-07-19T18:45:50.013Z,25.54
2023-07-19T18:48:18.547Z,25.53
2023-07-19T18:50:45.685Z,25.07
2023-07-19T18:53:12.931Z,25.03
2023-07-19T18:55:40.363Z,25.18
2023-07-19T18:58:07.424Z,25.07
2023-07-19T19:00:34.975Z,24.75
2023-07-19T19:03:02.789Z,24.61
2023-07-19T19:05:30.098Z,24.52
2023-07-19T19:07:57.422Z,24.55
2023-07-19T19:10:24.917Z,24.56
2023-07-19T19:12:52.013Z,24.32
2023-07-19T19:15:21.749Z,24.16
2023-07-19T19:17:48.947Z,24.00
2023-07-19T19:20:16.417Z,23.94
2023-07-19T19:22:43.949Z,23.82
2023-07-19T19:25:11.377Z,23.91
2023-07-19T19:27:39.642Z,24.05
2023-07-19T19:30:08.961Z,23.63
2023-07-19T19:32:37.424Z,23.40
2023-07-19T19:35:04.842Z,23.22
2023-07-19T19:37:33.036Z,23.01
2023-07-19T19:40:00.293Z,22.98
2023-07-19T19:42:30.326Z,22.87
2023-07-19T19:44:59.069Z,22.62
2023-07-19T19:47:27.535Z,22.53
2023-07-19T19:49:55.048Z,22.53
2023-07-19T19:52:23.785Z,22.31
2023-07-19T19:54:50.654Z,22.31
2023-07-19T19:57:18.407Z,22.19
2023-07-19T19:59:49.009Z,22.02
2023-07-19T20:04:47.480Z,22.21
2023-07-19T20:07:14.646Z,21.79
2023-07-19T20:09:55.697Z,22.01
2023-07-19T20:12:29.569Z,22.04
2023-07-19T20:14:57.194Z,21.97
2023-07-19T20:17:24.242Z,21.90
2023-07-19T20:22:21.178Z,21.59
2023-07-19T20:24:57.889Z,21.46
2023-07-19T20:30:10.296Z,21.38
2023-07-19T20:35:08.523Z,21.27
2023-07-19T20:37:38.020Z,21.13
2023-07-19T20:41:34.308Z,21.04
2023-07-19T20:42:57.376Z,20.88
2023-07-19T20:45:28.817Z,20.82
2023-07-19T20:48:01.797Z,20.71
2023-07-19T20:50:30.383Z,20.65
2023-07-19T20:52:57.937Z,20.68
2023-07-19T20:55:24.987Z,20.82
2023-07-19T20:57:51.896Z,20.66
2023-07-19T21:00:19.779Z,20.60
2023-07-19T21:02:46.679Z,20.34
2023-07-19T21:05:13.504Z,20.33
2023-07-19T21:07:40.334Z,20.20
2023-07-19T21:10:07.528Z,20.17
2023-07-19T21:12:34.649Z,20.26
2023-07-19T21:15:01.416Z,20.14
2023-07-19T21:17:28.350Z,19.91
2023-07-19T21:19:55.065Z,19.90
2023-07-19T21:22:21.971Z,19.94
2023-07-19T21:25:14.490Z,19.96
2023-07-19T21:27:35.516Z,19.75
2023-07-19T21:30:02.259Z,19.79
2023-07-19T21:32:29.803Z,19.63
2023-07-19T21:34:57.032Z,19.83
2023-07-19T21:37:23.747Z,19.78
2023-07-19T21:39:50.530Z,19.64
2023-07-19T21:42:17.334Z,19.78
2023-07-19T21:44:44.260Z,19.50
2023-07-19T21:47:11.140Z,19.44
2023-07-19T21:49:37.960Z,19.36
2023-07-19T21:52:05.895Z,19.37
2023-07-19T21:54:32.646Z,19.21
2023-07-19T21:56:59.521Z,19.17
2023-07-19T21:59:26.652Z,19.18
2023-07-19T22:01:53.438Z,19.20
2023-07-19T22:04:20.275Z,19.28
2023-07-19T22:06:47.163Z,19.20
2023-07-19T22:09:15.254Z,19.09
2023-07-19T22:11:42.434Z,19.18
2023-07-19T22:14:10.499Z,19.34
2023-07-19T22:16:39.420Z,19.32
2023-07-19T22:19:06.434Z,19.28
2023-07-19T22:21:33.272Z,19.30
2023-07-19T22:24:00.001Z,18.98
2023-07-19T22:26:26.818Z,18.85
2023-07-19T22:29:04.782Z,19.01
2023-07-19T22:31:32.577Z,19.00
2023-07-19T22:33:59.326Z,18.86
2023-07-19T22:36:27.538Z,18.87
2023-07-19T22:38:57.245Z,19.06
2023-07-19T22:41:24.264Z,19.05
2023-07-19T22:43:53.448Z,19.12
2023-07-19T22:46:21.011Z,19.16
2023-07-19T22:48:51.126Z,19.26
2023-07-19T22:51:18.572Z,19.27
2023-07-19T22:53:47.188Z,19.44
2023-07-19T22:56:15.119Z,19.02
2023-07-19T22:58:42.124Z,19.20
2023-07-19T23:03:43.221Z,19.34
2023-07-19T23:06:11.707Z,19.41
2023-07-19T23:08:40.184Z,19.42
2023-07-19T23:11:06.999Z,19.34
2023-07-19T23:13:33.896Z,19.33
2023-07-19T23:16:00.731Z,19.44
2023-07-19T23:18:27.501Z,19.51
2023-07-19T23:20:54.343Z,19.45
2023-07-19T23:23:21.714Z,19.44
2023-07-19T23:25:51.099Z,19.48
2023-07-19T23:28:19.012Z,19.53
2023-07-19T23:30:46.050Z,19.83
2023-07-19T23:33:13.049Z,19.88
2023-07-19T23:35:40.003Z,19.89
2023-07-19T23:38:06.793Z,19.98
2023-07-19T23:40:33.627Z,20.08
2023-07-19T23:43:00.386Z,20.25
2023-07-19T23:45:27.169Z,20.26
2023-07-19T23:47:55.455Z,20.41
2023-07-19T23:50:22.344Z,20.49
2023-07-19T23:52:49.118Z,20.55
2023-07-19T23:55:15.925Z,20.68
2023-07-19T23:57:42.670Z,20.69
